Time;durP1;ratioP1;P1;durP2;ratioP2;P2;SDS_P1;SDS_P2;PMS_P1;PMS_P2;Temp;Humidity;BMP_temperature;BMP_pressure;BME280_temperature;BME280_humidity;BME280_pressure;Samples;Min_cycle;Max_cycle;Signal;HPM_P1;HPM_P2
2022/04/03 00:00:33;;;;;;;7.20;4.33;;;-1.30;99.90;;;;;;4971831;28;20645;-83
2022/04/03 00:03:00;;;;;;;8.63;4.50;;;-1.20;99.90;;;;;;4960205;28;20038;-83
2022/04/03 00:05:26;;;;;;;7.97;4.30;;;0.10;99.90;;;;;;4944477;28;20220;-83
2022/04/03 00:07:54;;;;;;;7.83;4.30;;;-1.00;99.90;;;;;;4971080;28;20491;-83
2022/04/03 00:10:21;;;;;;;6.63;4.20;;;-0.90;99.90;;;;;;4976296;28;20053;-83
2022/04/03 00:12:47;;;;;;;10.83;5.00;;;-0.90;99.90;;;;;;4960171;28;20046;-83
2022/04/03 00:15:16;;;;;;;8.23;4.50;;;-0.70;99.90;;;;;;4960422;28;20050;-83
2022/04/03 00:17:43;;;;;;;9.17;4.70;;;-0.70;99.90;;;;;;4972434;28;20047;-83
2022/04/03 00:20:09;;;;;;;7.00;3.83;;;-0.60;99.90;;;;;;4959482;28;20385;-83
2022/04/03 00:22:36;;;;;;;9.00;3.80;;;-0.50;99.90;;;;;;4975457;28;20034;-85
2022/04/03 00:25:02;;;;;;;6.83;4.03;;;-0.50;99.90;;;;;;4959215;28;20043;-85
2022/04/03 00:27:28;;;;;;;6.60;3.73;;;0.80;99.90;;;;;;4970736;28;20501;-85
2022/04/03 00:29:54;;;;;;;8.00;3.30;;;-0.30;99.90;;;;;;4959627;28;20074;-85
2022/04/03 00:32:19;;;;;;;7.97;3.50;;;-0.30;99.90;;;;;;4944013;28;20054;-83
2022/04/03 00:34:46;;;;;;;4.73;2.90;;;-0.10;99.90;;;;;;4973699;28;20050;-83
2022/04/03 00:37:11;;;;;;;6.90;3.00;;;-0.10;99.90;;;;;;4975529;28;20038;-86
2022/04/03 00:39:37;;;;;;;5.50;3.00;;;0.00;99.90;;;;;;4974703;28;20493;-85
2022/04/03 00:42:08;;;;;;;5.97;3.10;;;-0.10;99.90;;;;;;4975665;28;20400;-86
2022/04/03 00:44:37;;;;;;;6.60;2.97;;;0.20;99.90;;;;;;4976081;28;20104;-86
2022/04/03 00:47:04;;;;;;;6.13;2.97;;;0.20;99.90;;;;;;4976118;28;20042;-85
2022/04/03 00:49:30;;;;;;;7.97;3.60;;;0.30;99.90;;;;;;4974987;28;20054;-86
2022/04/03 00:51:57;;;;;;;7.83;3.37;;;0.30;99.90;;;;;;4958944;28;20042;-85
2022/04/03 00:54:22;;;;;;;6.10;3.30;;;0.40;99.90;;;;;;4958234;28;20109;-85
2022/04/03 00:56:49;;;;;;;7.30;3.00;;;0.50;99.90;;;;;;4954323;28;20042;-85
2022/04/03 00:59:15;;;;;;;4.83;2.40;;;0.60;99.90;;;;;;4936061;28;20509;-86
2022/04/03 01:01:42;;;;;;;6.93;2.70;;;0.60;99.90;;;;;;4976180;28;20046;-85
2022/04/03 01:04:08;;;;;;;4.97;3.10;;;0.70;99.90;;;;;;4976123;28;20572;-86
2022/04/03 01:06:34;;;;;;;5.07;2.87;;;0.70;99.90;;;;;;4959948;28;20042;-83
2022/04/03 01:09:02;;;;;;;5.73;2.70;;;0.70;99.90;;;;;;4975677;28;20065;-83
2022/04/03 01:11:28;;;;;;;5.33;2.80;;;0.80;99.90;;;;;;4976431;28;20444;-84
2022/04/03 01:13:54;;;;;;;5.37;2.57;;;0.80;99.90;;;;;;4975897;28;20043;-83
2022/04/03 01:16:20;;;;;;;7.33;2.80;;;2.00;99.90;;;;;;4973166;28;20111;-83
2022/04/03 01:18:46;;;;;;;6.67;3.00;;;1.10;99.90;;;;;;4975460;28;20132;-83
2022/04/03 01:21:12;;;;;;;5.53;2.80;;;0.90;99.90;;;;;;4972841;28;20041;-83
2022/04/03 01:23:39;;;;;;;6.90;3.00;;;0.90;99.90;;;;;;4975371;28;20041;-82
2022/04/03 01:26:05;;;;;;;6.73;2.80;;;0.90;99.90;;;;;;4961343;28;20073;-81
2022/04/03 01:28:31;;;;;;;5.20;3.00;;;0.90;99.90;;;;;;4977467;28;20038;-81
2022/04/03 01:30:56;;;;;;;8.17;2.80;;;0.90;99.90;;;;;;4979660;28;20101;-82
2022/04/03 01:33:22;;;;;;;5.73;2.60;;;0.90;99.90;;;;;;4977406;28;20038;-82
2022/04/03 01:35:48;;;;;;;5.30;3.00;;;0.90;99.90;;;;;;4963165;28;20070;-82
2022/04/03 01:38:14;;;;;;;8.83;3.07;;;0.90;99.90;;;;;;4979126;28;20085;-82
2022/04/03 01:40:40;;;;;;;4.67;2.57;;;0.90;99.90;;;;;;4979628;28;20035;-83
2022/04/03 01:43:08;;;;;;;5.67;2.70;;;0.90;99.90;;;;;;4963182;28;20108;-83
2022/04/03 01:45:35;;;;;;;4.40;2.70;;;0.90;99.90;;;;;;4962868;28;20404;-83
2022/04/03 01:48:01;;;;;;;7.93;2.80;;;0.90;99.90;;;;;;4976539;28;20066;-83
2022/04/03 01:50:27;;;;;;;6.20;2.70;;;0.90;99.90;;;;;;4978047;28;20049;-83
2022/04/03 01:52:53;;;;;;;6.43;3.30;;;0.90;99.90;;;;;;4979606;28;20046;-83
2022/04/03 01:55:19;;;;;;;7.33;3.27;;;1.00;99.90;;;;;;4978904;28;20046;-82
2022/04/03 01:57:45;;;;;;;4.73;2.77;;;1.00;99.90;;;;;;4979033;28;20499;-82
2022/04/03 02:00:11;;;;;;;4.80;2.80;;;1.00;99.90;;;;;;4961135;28;20117;-82
2022/04/03 02:02:40;;;;;;;7.33;3.07;;;0.90;99.90;;;;;;4963066;28;20034;-82
2022/04/03 02:05:07;;;;;;;5.13;2.63;;;0.90;99.90;;;;;;4978395;28;20069;-82
2022/04/03 02:07:33;;;;;;;7.60;3.00;;;0.90;99.90;;;;;;4979265;28;20042;-82
2022/04/03 02:10:03;;;;;;;5.67;3.20;;;0.90;99.90;;;;;;4979370;28;20061;-82
2022/04/03 02:12:29;;;;;;;5.83;2.97;;;0.80;99.90;;;;;;4979283;28;20049;-82
2022/04/03 02:14:55;;;;;;;7.03;3.23;;;0.80;99.90;;;;;;4960832;28;20050;-82
2022/04/03 02:17:21;;;;;;;5.30;3.17;;;0.70;99.90;;;;;;4957978;28;20042;-82
2022/04/03 02:19:46;;;;;;;5.43;2.97;;;0.60;99.90;;;;;;4962018;28;20038;-82
2022/04/03 02:22:14;;;;;;;6.13;3.10;;;0.50;99.90;;;;;;4958014;28;20038;-81
2022/04/03 02:24:40;;;;;;;6.43;3.00;;;0.50;99.90;;;;;;4978514;28;20117;-82
2022/04/03 02:27:06;;;;;;;5.77;2.90;;;0.40;99.90;;;;;;4978090;28;20429;-82
2022/04/03 02:29:32;;;;;;;4.83;2.63;;;0.30;99.90;;;;;;4974494;28;20102;-85
2022/04/03 02:31:59;;;;;;;6.23;3.00;;;0.20;99.90;;;;;;4978713;28;20042;-85
2022/04/03 02:34:26;;;;;;;7.30;3.00;;;0.10;99.90;;;;;;4976697;28;20038;-85
2022/04/03 02:36:52;;;;;;;5.90;3.43;;;0.10;99.90;;;;;;4977712;28;20043;-85
2022/04/03 02:39:18;;;;;;;5.83;2.90;;;0.00;99.90;;;;;;4962494;28;20117;-85
2022/04/03 02:41:44;;;;;;;7.00;3.23;;;0.00;99.90;;;;;;4978442;28;20045;-85
2022/04/03 02:44:10;;;;;;;6.00;3.00;;;-0.10;99.90;;;;;;4978178;28;20030;-85
2022/04/03 02:46:36;;;;;;;5.10;2.67;;;-0.20;99.90;;;;;;4976138;28;20039;-82
2022/04/03 02:49:02;;;;;;;6.53;3.20;;;-0.20;99.90;;;;;;4961526;28;20077;-82
2022/04/03 02:51:28;;;;;;;6.83;3.30;;;-0.30;99.90;;;;;;4977731;28;20046;-82
2022/04/03 02:53:53;;;;;;;7.63;2.90;;;-0.30;99.90;;;;;;4959093;28;20049;-82
2022/04/03 02:56:19;;;;;;;7.90;3.13;;;-0.40;99.90;;;;;;4977671;28;20149;-82
2022/04/03 02:58:45;;;;;;;6.13;3.40;;;1.40;99.90;;;;;;4961483;28;20046;-82
2022/04/03 03:01:11;;;;;;;6.33;3.30;;;-0.50;99.90;;;;;;4977959;28;20085;-82
2022/04/03 03:03:37;;;;;;;5.30;2.80;;;0.70;99.90;;;;;;4973485;28;20076;-85
2022/04/03 03:06:03;;;;;;;6.93;3.40;;;-0.60;99.90;;;;;;4977944;28;20042;-85
2022/04/03 03:08:28;;;;;;;6.27;3.17;;;-0.60;99.90;;;;;;4978157;28;20089;-85
2022/04/03 03:10:54;;;;;;;4.60;3.10;;;-0.70;99.90;;;;;;4977728;28;20077;-85
2022/04/03 03:13:20;;;;;;;6.33;3.23;;;-0.60;99.90;;;;;;4977346;28;20038;-85
2022/04/03 03:15:46;;;;;;;6.47;3.50;;;-0.60;99.90;;;;;;4962013;28;20042;-85
2022/04/03 03:18:11;;;;;;;6.30;3.70;;;-0.70;99.90;;;;;;4978010;28;20516;-82
2022/04/03 03:20:37;;;;;;;7.07;3.30;;;-0.70;99.90;;;;;;4975448;28;20049;-82
2022/04/03 03:23:03;;;;;;;8.23;3.40;;;-0.70;99.90;;;;;;4972822;28;20531;-82
2022/04/03 03:25:29;;;;;;;5.70;3.40;;;-0.70;99.90;;;;;;4961832;28;20109;-83
2022/04/03 03:27:55;;;;;;;7.97;3.13;;;-0.80;99.90;;;;;;4977022;28;20050;-82
2022/04/03 03:30:21;;;;;;;6.33;3.23;;;-0.80;99.90;;;;;;4976830;28;20053;-82
2022/04/03 03:32:47;;;;;;;5.00;3.33;;;-0.90;99.90;;;;;;4975806;28;20038;-82
2022/04/03 03:35:13;;;;;;;8.30;3.20;;;-0.80;99.90;;;;;;4977658;28;20046;-85
2022/04/03 03:37:39;;;;;;;5.83;3.30;;;-0.90;99.90;;;;;;4977661;28;20334;-85
2022/04/03 03:40:06;;;;;;;7.03;3.07;;;-0.90;99.90;;;;;;4972927;28;20046;-85
2022/04/03 03:42:33;;;;;;;5.97;3.50;;;-1.00;99.90;;;;;;4977340;28;20045;-85
2022/04/03 03:44:59;;;;;;;9.10;3.47;;;-1.10;99.90;;;;;;4977217;28;20042;-85
2022/04/03 03:47:26;;;;;;;6.43;3.30;;;-1.00;99.90;;;;;;4976328;28;20096;-85
2022/04/03 03:49:52;;;;;;;6.53;3.47;;;-1.00;99.90;;;;;;4972668;28;20066;-82
2022/04/03 03:52:18;;;;;;;5.23;2.97;;;-0.90;99.90;;;;;;4973686;28;20370;-83
2022/04/03 03:54:45;;;;;;;6.10;3.10;;;-0.90;99.90;;;;;;4973927;28;20049;-83
2022/04/03 03:57:12;;;;;;;6.73;2.90;;;-0.80;99.90;;;;;;4970276;28;20049;-83
2022/04/03 03:59:38;;;;;;;7.07;3.33;;;-0.60;99.90;;;;;;4973852;28;20050;-83
2022/04/03 04:02:04;;;;;;;6.33;3.20;;;-0.70;99.90;;;;;;4951916;23;20046;-82
2022/04/03 04:04:30;;;;;;;9.10;3.47;;;-0.70;99.90;;;;;;4978097;28;20049;-83
2022/04/03 04:06:56;;;;;;;6.97;2.97;;;-0.70;99.90;;;;;;4957413;28;20117;-82
2022/04/03 04:09:23;;;;;;;7.20;3.20;;;-0.80;99.90;;;;;;4992937;28;20408;-84
2022/04/03 04:11:48;;;;;;;5.97;3.20;;;-0.80;99.90;;;;;;4977863;28;20038;-84
2022/04/03 04:14:14;;;;;;;5.17;3.20;;;-0.90;99.90;;;;;;4994902;28;20045;-84
2022/04/03 04:16:42;;;;;;;5.43;3.77;;;-1.00;99.90;;;;;;4995060;28;20514;-84
2022/04/03 04:19:08;;;;;;;8.17;3.67;;;-0.30;99.90;;;;;;4993475;28;20103;-84
2022/04/03 04:21:34;;;;;;;6.97;2.90;;;-1.00;99.90;;;;;;4994891;28;20492;-84
2022/04/03 04:24:00;;;;;;;9.87;3.40;;;-1.00;99.90;;;;;;4965534;28;20392;-84
2022/04/03 04:26:25;;;;;;;7.93;3.20;;;-1.00;99.90;;;;;;4994752;28;20038;-83
2022/04/03 04:28:51;;;;;;;7.30;3.20;;;-1.10;99.90;;;;;;4976090;28;20116;-82
2022/04/03 04:31:18;;;;;;;5.80;3.10;;;-1.10;99.90;;;;;;4975583;28;20046;-83
2022/04/03 04:33:44;;;;;;;6.50;3.20;;;-1.20;99.90;;;;;;4994283;28;20034;-83
2022/04/03 04:36:10;;;;;;;5.60;3.07;;;-1.20;99.90;;;;;;4994564;28;20045;-84
2022/04/03 04:38:36;;;;;;;6.23;3.10;;;-1.20;99.90;;;;;;4981180;28;20049;-82
2022/04/03 04:41:02;;;;;;;5.50;3.20;;;-1.30;99.90;;;;;;4972953;28;20100;-83
2022/04/03 04:43:28;;;;;;;7.17;3.10;;;-1.30;99.90;;;;;;4993104;28;20050;-84
2022/04/03 04:45:54;;;;;;;7.00;3.10;;;-1.30;99.90;;;;;;4975136;28;20129;-84
2022/04/03 04:48:20;;;;;;;7.47;3.50;;;-1.30;99.90;;;;;;4992048;28;20164;-85
2022/04/03 04:50:45;;;;;;;4.80;3.13;;;-1.30;99.90;;;;;;4991874;28;20120;-85
2022/04/03 04:53:11;;;;;;;8.33;3.20;;;-1.30;99.90;;;;;;4976709;28;20061;-85
2022/04/03 04:55:37;;;;;;;6.07;2.97;;;-1.30;99.90;;;;;;4977129;28;20061;-85
2022/04/03 04:58:02;;;;;;;6.60;3.20;;;-1.30;99.90;;;;;;5008098;28;20042;-83
2022/04/03 05:00:30;;;;;;;7.23;3.07;;;-1.40;99.90;;;;;;4990411;28;20125;-83
2022/04/03 05:02:56;;;;;;;7.17;3.03;;;-1.40;99.90;;;;;;4992597;28;20060;-83
2022/04/03 05:05:22;;;;;;;6.23;3.10;;;-1.10;99.90;;;;;;4975899;28;20053;-85
2022/04/03 05:07:51;;;;;;;6.43;3.30;;;-1.40;99.90;;;;;;4992743;28;20037;-85
2022/04/03 05:10:18;;;;;;;6.07;3.50;;;-1.50;99.90;;;;;;4991477;28;20229;-85
2022/04/03 05:12:44;;;;;;;6.40;3.10;;;-1.50;99.90;;;;;;4976417;28;20053;-85
2022/04/03 05:15:11;;;;;;;8.50;3.07;;;-1.20;99.90;;;;;;4992457;28;20042;-83
2022/04/03 05:17:42;;;;;;;6.30;3.27;;;-1.50;99.90;;;;;;4993066;28;20038;-83
2022/04/03 05:20:14;;;;;;;7.87;3.33;;;-1.40;99.90;;;;;;4991724;28;20041;-83
2022/04/03 05:22:41;;;;;;;6.87;3.43;;;-1.30;99.90;;;;;;4991660;28;20034;-81
2022/04/03 05:25:11;;;;;;;8.10;3.07;;;-1.20;99.90;;;;;;4963421;28;20041;-81
2022/04/03 05:27:37;;;;;;;4.07;2.70;;;-1.10;99.90;;;;;;4973066;28;20483;-81
2022/04/03 05:30:03;;;;;;;4.73;2.90;;;-1.00;99.90;;;;;;4976096;28;20038;-81
2022/04/03 05:32:31;;;;;;;4.83;2.53;;;-1.00;99.90;;;;;;4990141;28;20038;-80
2022/04/03 05:34:58;;;;;;;4.83;2.43;;;-0.90;99.90;;;;;;4993630;28;20519;-80
2022/04/03 05:37:25;;;;;;;10.43;3.63;;;-0.80;99.90;;;;;;4992058;28;20584;-80
2022/04/03 05:39:51;;;;;;;14.60;8.00;;;-0.70;99.90;;;;;;4976143;28;20038;-80
2022/04/03 05:42:18;;;;;;;10.43;6.10;;;-0.60;99.90;;;;;;4992804;28;20038;-80
2022/04/03 05:44:44;;;;;;;9.83;5.70;;;-0.50;99.90;;;;;;4963597;28;20365;-81
2022/04/03 05:47:09;;;;;;;8.63;4.87;;;-0.40;99.90;;;;;;4994042;28;20049;-78
2022/04/03 05:49:35;;;;;;;9.33;2.93;;;-0.20;99.90;;;;;;4976773;28;20037;-81
2022/04/03 05:52:02;;;;;;;6.67;2.87;;;-0.10;99.90;;;;;;4992155;28;20480;-81
2022/04/03 05:54:27;;;;;;;6.97;2.90;;;0.10;99.90;;;;;;4992181;28;20041;-81
2022/04/03 05:56:53;;;;;;;5.13;2.60;;;0.20;99.90;;;;;;4992894;28;20044;-81
2022/04/03 05:59:20;;;;;;;7.03;3.00;;;0.30;99.90;;;;;;4990925;28;20050;-81
2022/04/03 06:01:46;;;;;;;7.17;3.10;;;0.40;99.90;;;;;;4988202;28;20045;-81
2022/04/03 06:04:12;;;;;;;9.23;3.73;;;0.50;99.90;;;;;;4994174;28;20080;-80
2022/04/03 06:06:38;;;;;;;6.60;3.27;;;0.60;99.90;;;;;;4991945;28;20508;-80
2022/04/03 06:09:04;;;;;;;8.70;3.80;;;0.60;99.90;;;;;;4981030;28;20488;-80
2022/04/03 06:11:30;;;;;;;6.60;4.20;;;0.60;99.90;;;;;;4997530;28;20049;-80
2022/04/03 06:13:56;;;;;;;7.40;3.80;;;0.60;99.90;;;;;;4990568;28;20053;-80
2022/04/03 06:16:21;;;;;;;7.77;3.47;;;0.70;99.90;;;;;;4999176;28;20038;-80
2022/04/03 06:18:47;;;;;;;8.63;3.47;;;0.70;99.90;;;;;;4994971;28;20064;-80
2022/04/03 06:21:13;;;;;;;5.17;3.10;;;0.70;99.90;;;;;;5004223;28;20077;-80
2022/04/03 06:23:39;;;;;;;5.63;3.00;;;0.70;99.90;;;;;;5006845;28;20037;-78
2022/04/03 06:26:04;;;;;;;8.37;2.90;;;0.70;99.90;;;;;;4965732;28;20046;-78
2022/04/03 06:28:30;;;;;;;4.50;2.80;;;0.70;99.90;;;;;;5004693;28;20042;-78
2022/04/03 06:30:56;;;;;;;5.30;2.80;;;0.70;99.90;;;;;;5005595;28;20152;-78
2022/04/03 06:33:22;;;;;;;6.50;2.70;;;0.70;99.90;;;;;;5005738;28;20035;-78
2022/04/03 06:35:49;;;;;;;7.17;2.60;;;0.60;99.90;;;;;;5000588;28;20145;-78
2022/04/03 06:38:15;;;;;;;4.57;2.77;;;0.70;99.90;;;;;;4995609;28;20039;-78
2022/04/03 06:40:51;;;;;;;4.80;2.57;;;0.70;99.90;;;;;;4980111;28;20107;-80
2022/04/03 06:43:22;;;;;;;7.32;2.38;;;0.70;99.90;;;;;;4996195;28;20069;-80
2022/04/03 06:45:49;;;;;;;6.70;2.40;;;0.90;99.90;;;;;;4997756;28;20113;-80
2022/04/03 06:48:15;;;;;;;6.70;2.50;;;1.40;99.90;;;;;;4991142;28;20043;-80
2022/04/03 06:50:41;;;;;;;5.00;2.13;;;2.60;99.90;;;;;;4997824;28;20555;-80
2022/04/03 06:53:07;;;;;;;5.63;2.00;;;3.20;99.90;;;;;;4997950;28;20125;-80
2022/04/03 06:55:32;;;;;;;4.00;1.83;;;4.10;99.90;;;;;;4997922;28;20048;-87
2022/04/03 06:57:58;;;;;;;3.60;1.70;;;4.70;99.90;;;;;;4983403;28;20484;-88
2022/04/03 07:00:24;;;;;;;5.03;1.70;;;5.90;99.90;;;;;;4987045;28;20493;-88
2022/04/03 07:02:51;;;;;;;4.60;1.60;;;6.10;99.90;;;;;;5014229;28;20054;-88
2022/04/03 07:05:17;;;;;;;4.63;1.77;;;6.20;99.90;;;;;;4966496;28;20056;-89
2022/04/03 07:07:43;;;;;;;4.40;1.70;;;6.60;99.90;;;;;;5000275;28;20029;-89
2022/04/03 07:10:09;;;;;;;5.38;1.80;;;6.80;99.90;;;;;;4965395;28;20566;-89
2022/04/03 07:12:35;;;;;;;3.92;1.60;;;7.40;99.90;;;;;;4995070;28;20077;-89
2022/04/03 07:15:02;;;;;;;4.78;1.60;;;7.40;99.90;;;;;;4993907;28;20044;-89
2022/04/03 07:17:27;;;;;;;6.75;1.50;;;7.30;99.90;;;;;;4995787;28;20045;-90
2022/04/03 07:19:53;;;;;;;6.15;1.65;;;7.70;99.90;;;;;;4979389;28;20473;-90
2022/04/03 07:22:19;;;;;;;4.35;1.52;;;8.00;99.90;;;;;;4997301;28;20381;-90
2022/04/03 07:24:45;;;;;;;4.10;1.33;;;8.10;99.90;;;;;;4963199;28;20480;-82
2022/04/03 07:27:10;;;;;;;6.10;1.58;;;8.00;99.90;;;;;;4977600;28;20033;-81
2022/04/03 07:29:36;;;;;;;5.07;1.65;;;8.40;99.90;;;;;;4981533;28;20041;-93
2022/04/03 07:32:02;;;;;;;3.92;1.58;;;8.90;99.90;;;;;;4995538;28;20443;-93
2022/04/03 07:34:28;;;;;;;3.40;1.25;;;9.40;99.90;;;;;;4981417;28;20046;-93
2022/04/03 07:36:54;;;;;;;4.15;1.25;;;9.90;99.90;;;;;;4989538;28;20095;-93
2022/04/03 07:39:20;;;;;;;4.55;1.33;;;10.50;99.90;;;;;;4987164;28;21261;-93
2022/04/03 07:41:46;;;;;;;5.28;1.40;;;9.90;99.90;;;;;;4968889;28;20039;-93
2022/04/03 07:44:12;;;;;;;5.10;1.40;;;10.60;99.90;;;;;;4993875;28;20041;-93
2022/04/03 07:46:38;;;;;;;3.20;1.10;;;10.60;99.90;;;;;;4987870;28;20029;-82
2022/04/03 07:49:04;;;;;;;4.15;1.30;;;10.30;99.90;;;;;;4992751;28;20407;-81
2022/04/03 07:51:31;;;;;;;2.72;0.93;;;11.70;99.90;;;;;;5003029;28;20045;-81
2022/04/03 07:53:57;;;;;;;1.73;0.60;;;12.00;99.90;;;;;;4988582;28;20042;-81
2022/04/03 07:56:23;;;;;;;3.72;0.80;;;12.50;99.90;;;;;;5003457;28;20046;-82
2022/04/03 07:58:49;;;;;;;2.15;0.82;;;13.50;99.90;;;;;;5021091;28;20096;-82
2022/04/03 08:01:15;;;;;;;2.92;1.02;;;13.10;97.10;;;;;;5002856;28;20034;-82
2022/04/03 08:03:40;;;;;;;2.42;1.02;;;12.90;97.10;;;;;;5000005;28;21085;-90
2022/04/03 08:06:06;;;;;;;2.42;0.80;;;13.40;96.50;;;;;;4980752;28;20046;-90
2022/04/03 08:08:32;;;;;;;2.65;0.80;;;13.40;96.40;;;;;;5004866;28;20034;-90
2022/04/03 08:10:58;;;;;;;3.10;1.15;;;13.70;94.20;;;;;;4986799;28;20488;-90
2022/04/03 08:13:24;;;;;;;3.13;0.93;;;13.50;95.00;;;;;;4980445;28;20038;-90
2022/04/03 08:15:50;;;;;;;1.92;0.65;;;13.50;96.20;;;;;;4993771;28;20124;-89
2022/04/03 08:18:16;;;;;;;3.30;0.93;;;14.30;95.20;;;;;;4995170;28;20249;-81
2022/04/03 08:20:43;;;;;;;5.93;2.50;;;14.80;95.20;;;;;;5012886;28;20092;-81
2022/04/03 08:23:09;;;;;;;3.97;1.02;;;14.50;92.90;;;;;;4990115;28;20033;-81
2022/04/03 08:25:36;;;;;;;1.92;0.70;;;15.30;92.90;;;;;;5003939;28;20034;-81
2022/04/03 08:28:02;;;;;;;3.65;1.10;;;16.10;92.20;;;;;;4995870;28;20046;-81
2022/04/03 08:30:30;;;;;;;1.73;0.52;;;16.80;91.00;;;;;;4983379;28;20044;-88
2022/04/03 08:32:56;;;;;;;3.60;1.92;;;17.00;86.40;;;;;;4996502;28;20073;-89
2022/04/03 08:35:26;;;;;;;5.10;1.75;;;16.20;80.50;;;;;;5009290;28;20054;-81
2022/04/03 08:37:53;;;;;;;2.05;1.02;;;16.50;83.20;;;;;;4996948;28;20073;-81
2022/04/03 08:40:21;;;;;;;4.68;2.45;;;17.30;83.60;;;;;;4997785;28;20046;-81
2022/04/03 08:42:48;;;;;;;3.35;1.02;;;17.50;82.30;;;;;;4980633;28;20034;-81
2022/04/03 08:45:14;;;;;;;1.65;1.00;;;17.70;79.80;;;;;;4978070;28;20037;-81
2022/04/03 08:47:45;;;;;;;1.35;0.90;;;16.60;76.70;;;;;;4977413;28;20129;-81
2022/04/03 08:50:12;;;;;;;2.47;1.00;;;16.80;79.20;;;;;;4992647;28;20500;-81
2022/04/03 08:52:40;;;;;;;2.10;1.00;;;17.30;77.90;;;;;;4985610;28;20061;-84
2022/04/03 08:55:06;;;;;;;6.15;1.00;;;16.70;72.20;;;;;;4990882;28;20466;-84
2022/04/03 08:57:32;;;;;;;4.40;0.90;;;16.50;75.90;;;;;;5007664;28;20042;-84
2022/04/03 08:59:59;;;;;;;3.83;0.95;;;16.10;74.70;;;;;;5007346;28;20515;-84
2022/04/03 09:02:25;;;;;;;3.58;1.38;;;16.10;77.30;;;;;;4983735;28;20061;-85
2022/04/03 09:04:51;;;;;;;3.80;0.80;;;16.90;76.90;;;;;;4984813;28;20042;-84
2022/04/03 09:07:18;;;;;;;2.58;0.90;;;17.80;76.80;;;;;;4976996;28;20484;-84
2022/04/03 09:09:44;;;;;;;3.50;1.20;;;17.20;74.40;;;;;;4995898;28;20472;-90
2022/04/03 09:12:15;;;;;;;4.10;1.02;;;16.50;74.70;;;;;;4993211;28;20049;-89
2022/04/03 09:14:55;;;;;;;2.65;1.10;;;16.40;75.80;;;;;;4979665;28;20038;-89
2022/04/03 09:17:38;;;;;;;2.35;0.93;;;17.30;75.40;;;;;;5008149;28;20038;-89
2022/04/03 09:20:07;;;;;;;5.38;1.17;;;17.60;69.50;;;;;;4996055;28;20046;-89
2022/04/03 09:22:35;;;;;;;3.92;1.30;;;18.50;70.60;;;;;;4979260;28;20404;-89
2022/04/03 09:25:06;;;;;;;5.25;1.20;;;18.50;71.10;;;;;;4986543;28;20450;-90
2022/04/03 09:27:48;;;;;;;4.22;1.10;;;19.30;71.70;;;;;;5001248;28;20373;-90
2022/04/03 09:30:15;;;;;;;3.90;1.20;;;19.90;69.40;;;;;;5012328;28;20112;-89
2022/04/03 09:32:52;;;;;;;5.18;1.10;;;18.70;67.80;;;;;;4993775;28;20034;-89
2022/04/03 09:35:19;;;;;;;3.08;1.20;;;18.10;69.20;;;;;;4993924;28;20042;-89
2022/04/03 09:38:08;;;;;;;3.05;1.10;;;17.10;66.30;;;;;;5003888;28;20049;-90
2022/04/03 09:40:36;;;;;;;2.22;1.08;;;16.70;66.40;;;;;;5007138;28;20109;-90
2022/04/03 09:43:16;;;;;;;3.95;0.90;;;15.70;70.00;;;;;;5003656;28;20104;-85
2022/04/03 09:45:56;;;;;;;2.92;0.93;;;14.90;71.40;;;;;;4995908;28;20084;-84
2022/04/03 09:48:33;;;;;;;2.55;0.88;;;13.90;72.90;;;;;;4995269;28;20495;-84
2022/04/03 09:51:08;;;;;;;3.25;1.10;;;13.30;75.30;;;;;;5015048;28;20042;-84
2022/04/03 09:53:46;;;;;;;3.33;0.80;;;12.80;76.60;;;;;;5008325;28;20038;-85
2022/04/03 09:56:14;;;;;;;3.65;0.93;;;12.60;77.40;;;;;;5006533;28;20064;-84
2022/04/03 09:58:50;;;;;;;3.60;1.00;;;12.30;77.90;;;;;;4988284;28;20104;-81
2022/04/03 10:01:23;;;;;;;3.20;0.85;;;13.30;78.80;;;;;;5010942;28;20116;-81
2022/04/03 10:03:51;;;;;;;2.17;0.82;;;15.20;76.40;;;;;;5008386;28;20496;-81
2022/04/03 10:06:18;;;;;;;2.47;0.82;;;16.70;73.10;;;;;;4982164;28;20076;-81
2022/04/03 10:08:46;;;;;;;2.05;0.80;;;18.40;70.20;;;;;;4997998;28;20495;-81
2022/04/03 10:11:12;;;;;;;2.42;1.00;;;18.60;65.80;;;;;;4998906;28;20069;-81
2022/04/03 10:13:39;;;;;;;3.88;0.82;;;17.70;65.50;;;;;;5001303;28;20034;-81
2022/04/03 10:16:04;;;;;;;3.40;1.20;;;16.10;66.20;;;;;;4991363;28;20040;-89
2022/04/03 10:18:33;;;;;;;2.45;0.90;;;14.30;68.60;;;;;;5006487;28;20121;-89
2022/04/03 10:20:59;;;;;;;2.72;0.80;;;12.80;72.10;;;;;;4997616;28;20042;-89
2022/04/03 10:23:27;;;;;;;2.92;1.08;;;13.10;74.70;;;;;;4988555;28;20088;-90
2022/04/03 10:25:56;;;;;;;3.63;1.13;;;14.20;72.60;;;;;;5014706;28;20042;-90
2022/04/03 10:28:23;;;;;;;3.08;0.85;;;15.60;71.40;;;;;;4996902;28;20453;-89
2022/04/03 10:31:07;;;;;;;4.18;1.38;;;16.30;70.10;;;;;;4997865;28;20030;-89
2022/04/03 10:33:38;;;;;;;3.58;1.02;;;15.80;70.40;;;;;;5010923;28;20114;-81
2022/04/03 10:36:05;;;;;;;1.67;0.73;;;15.30;71.90;;;;;;4996107;28;20072;-81
2022/04/03 10:38:41;;;;;;;1.33;0.77;;;14.50;73.30;;;;;;4981286;28;20429;-81
2022/04/03 10:41:24;;;;;;;2.03;0.70;;;13.30;76.60;;;;;;4997371;28;20045;-81
2022/04/03 10:43:49;;;;;;;0.73;0.50;;;12.20;78.20;;;;;;4999308;28;20088;-81
2022/04/03 10:46:15;;;;;;;2.83;1.05;;;11.30;80.60;;;;;;5000932;28;20046;-80
2022/04/03 10:48:41;;;;;;;1.80;0.70;;;10.50;84.30;;;;;;4982284;28;20392;-85
2022/04/03 10:51:06;;;;;;;2.03;0.90;;;9.80;89.10;;;;;;5000774;28;20034;-86
2022/04/03 10:53:38;;;;;;;1.15;0.80;;;9.40;91.60;;;;;;4980563;28;20042;-86
2022/04/03 10:56:32;;;;;;;4.95;1.20;;;9.10;95.50;;;;;;4979982;28;20038;-88
2022/04/03 10:58:58;;;;;;;3.78;1.27;;;9.00;98.00;;;;;;5000310;28;20042;-89
2022/04/03 11:01:32;;;;;;;2.42;1.27;;;9.00;99.50;;;;;;5015826;28;20029;-90
2022/04/03 11:04:08;;;;;;;3.55;1.60;;;9.00;99.60;;;;;;5002862;28;20061;-89
2022/04/03 11:06:35;;;;;;;;;;;8.90;99.60;;;;;;4991788;28;20121;-89
2022/04/03 11:09:22;;;;;;;5.15;1.45;;;8.70;99.90;;;;;;4997281;28;20383;-88
2022/04/03 11:11:51;;;;;;;3.40;1.20;;;8.40;99.90;;;;;;5001736;28;20064;-89
2022/04/03 11:14:53;;;;;;;2.78;1.15;;;8.30;99.90;;;;;;4999495;28;20034;-88
2022/04/03 11:17:38;;;;;;;4.20;1.60;;;8.00;99.90;;;;;;4972489;28;20046;-87
2022/04/03 11:20:05;;;;;;;2.70;1.20;;;7.70;99.90;;;;;;4996682;28;20134;-87
2022/04/03 11:22:32;;;;;;;3.35;1.13;;;7.50;99.90;;;;;;4983702;28;20038;-84
2022/04/03 11:24:57;;;;;;;3.45;1.38;;;7.40;99.90;;;;;;4996901;28;20050;-84
2022/04/03 11:27:23;;;;;;;1.65;1.10;;;7.80;99.90;;;;;;4982817;28;20037;-84
2022/04/03 11:29:49;;;;;;;2.75;1.20;;;8.30;99.90;;;;;;4982299;28;20060;-84
2022/04/03 11:32:16;;;;;;;3.30;1.23;;;8.60;99.90;;;;;;4998936;28;20050;-85
2022/04/03 11:34:42;;;;;;;5.53;1.52;;;8.80;99.90;;;;;;4974503;28;20045;-85
2022/04/03 11:37:10;;;;;;;1.85;1.10;;;9.00;99.90;;;;;;4981746;28;20034;-85
2022/04/03 11:39:40;;;;;;;4.03;1.20;;;10.00;99.90;;;;;;4982089;28;20069;-84
2022/04/03 11:42:08;;;;;;;3.35;1.10;;;12.10;99.90;;;;;;5000494;28;20038;-84
2022/04/03 11:44:38;;;;;;;4.72;1.42;;;14.10;99.10;;;;;;4992612;28;20041;-85
2022/04/03 11:47:05;;;;;;;3.67;1.20;;;16.30;96.00;;;;;;4983512;28;20035;-84
2022/04/03 11:49:33;;;;;;;4.38;1.30;;;17.60;90.10;;;;;;4979998;28;20046;-84
2022/04/03 11:52:08;;;;;;;3.17;1.08;;;17.70;82.20;;;;;;5001597;28;20042;-84
2022/04/03 11:54:35;;;;;;;4.28;1.10;;;17.70;82.70;;;;;;4991273;28;20496;-84
2022/04/03 11:57:08;;;;;;;2.70;1.05;;;17.80;75.90;;;;;;4971784;28;20408;-84
2022/04/03 11:59:36;;;;;;;3.42;1.00;;;17.90;75.10;;;;;;4988943;28;20398;-85
2022/04/03 12:02:14;;;;;;;4.18;1.25;;;17.90;72.50;;;;;;4996293;28;20438;-85
2022/04/03 12:04:43;;;;;;;3.00;1.30;;;18.10;69.90;;;;;;4979027;28;20046;-83
2022/04/03 12:07:13;;;;;;;2.72;1.05;;;17.50;71.50;;;;;;4978722;28;20038;-83
2022/04/03 12:09:41;;;;;;;2.75;0.93;;;16.30;73.70;;;;;;4990770;28;20041;-83
2022/04/03 12:12:08;;;;;;;2.35;0.77;;;16.10;76.60;;;;;;4986458;28;20045;-86
2022/04/03 12:14:37;;;;;;;2.45;0.73;;;16.40;73.70;;;;;;5007217;28;20061;-86
2022/04/03 12:17:08;;;;;;;1.73;0.65;;;17.40;71.90;;;;;;4998097;28;20041;-86
2022/04/03 12:19:46;;;;;;;1.20;0.68;;;17.70;69.30;;;;;;4995022;28;20042;-86
2022/04/03 12:22:15;;;;;;;3.40;0.98;;;17.80;67.80;;;;;;4986462;28;20046;-86
2022/04/03 12:24:41;;;;;;;4.25;1.02;;;17.80;66.60;;;;;;4988244;28;20038;-86
2022/04/03 12:27:12;;;;;;;2.60;0.90;;;17.00;68.40;;;;;;4993289;28;20519;-86
2022/04/03 12:29:40;;;;;;;3.40;1.05;;;15.80;70.90;;;;;;5001467;28;20042;-91
2022/04/03 12:32:12;;;;;;;2.45;1.00;;;14.50;71.70;;;;;;4994414;28;20515;-91
2022/04/03 12:34:50;;;;;;;2.75;1.15;;;15.80;74.20;;;;;;4988830;28;20057;-92
2022/04/03 12:37:17;;;;;;;1.65;0.60;;;17.20;68.90;;;;;;4981992;28;20116;-90
2022/04/03 12:39:45;;;;;;;4.13;1.02;;;18.10;63.50;;;;;;4998089;28;20064;-90
2022/04/03 12:42:13;;;;;;;2.33;0.85;;;16.10;63.70;;;;;;4992808;28;20115;-91
2022/04/03 12:45:17;;;;;;;2.53;0.98;;;14.30;67.80;;;;;;5002968;28;20041;-86
2022/04/03 12:48:03;;;;;;;3.03;1.20;;;13.80;74.10;;;;;;4990168;28;20120;-86
2022/04/03 12:50:41;;;;;;;2.95;1.48;;;13.90;73.70;;;;;;4988580;28;20053;-86
2022/04/03 12:53:15;;;;;;;2.35;1.10;;;14.60;76.30;;;;;;4988250;28;20045;-86